Latest Weather Observations for Alice Springs Airport

IDD60801

Issued at 9:05 am CST Friday 18 April 2014 (issued every 30 minutes, with the page automatically refreshed every 10 minutes)

About weather observations | Map of weather stations | Latest weather observations for NT | Other Formats
Station Details ID: 015590 Name: ALICE SPRINGS AIRPORT Lat: -23.80 Lon: 133.89 Height: 546.0 m
Data from the previous 72 hours. | See also: Recent months at Alice Springs Airport
Date/Time
CST
Temp
°C
App
Temp
°C
Dew
Point
Rel
Hum
%
Delta-T
°C
Wind Press
QNH
hPa
Press
MSL
hPa
Rain
since 9 am
mm
Dir
 
Spd
km/h
Gust
km/h
Spd
kts
Gust
kts
18/09:00am 19.2 18.4 6.5 43 6.5 ESE 0 4 0 2 1022.9 - 0.0
18/08:30am 16.8 16.3 7.9 55 4.6 W 0 0 0 0 1022.8 1020.6 0.0
18/08:00am 14.1 13.2 9.3 73 2.5 NW 4 6 2 3 1022.7 - 0.0
18/07:30am 12.1 10.1 8.6 79 1.8 NW 9 9 5 5 1022.4 1020.2 0.0
18/07:00am 10.2 7.8 7.1 81 1.5 WNW 9 11 5 6 1022.2 - 0.0
18/06:30am 10.5 8.1 7.2 80 1.6 W 9 9 5 5 1022.0 1019.8 0.0
18/06:00am 10.6 8.8 7.8 83 1.4 NNW 7 9 4 5 1021.5 1019.3 0.0
18/05:30am 10.5 8.2 7.5 82 1.5 WNW 9 11 5 6 1021.4 1019.2 0.0
18/05:00am 11.5 9.5 7.0 74 2.2 NW 7 7 4 4 1021.2 - 0.0
18/04:30am 11.4 9.1 7.6 77 1.9 NNW 9 9 5 5 1021.2 1019.0 0.0
18/04:00am 12.0 10.1 7.4 73 2.3 NW 7 9 4 5 1021.2 - 0.0
18/03:30am 12.1 9.8 7.5 73 2.3 NW 9 9 5 5 1021.3 1019.1 0.0
18/03:00am 12.7 10.7 7.1 69 2.8 WNW 7 9 4 5 1021.3 1019.1 0.0
18/02:30am 12.7 10.7 7.1 69 2.8 NW 7 9 4 5 1021.4 1019.2 0.0
18/02:00am 13.4 11.4 7.0 65 3.2 NW 7 9 4 5 1021.5 - 0.0
18/01:30am 13.3 11.1 7.8 69 2.8 WNW 9 9 5 5 1021.6 1019.4 0.0
18/01:00am 13.2 11.0 7.9 70 2.7 WNW 9 11 5 6 1021.9 - 0.0
18/12:30am 13.3 11.6 8.2 71 2.6 W 7 9 4 5 1022.0 1019.8 0.0
18/12:00am 13.9 13.3 7.3 64 3.3 NNW 0 0 0 0 1022.1 1019.9 0.0
 
Date/Time
CST
Temp
°C
App
Temp
°C
Dew
Point
Rel
Hum
%
Delta-T
°C
Wind Press
QNH
hPa
Press
MSL
hPa
Rain
since 9 am
mm
Dir
 
Spd
km/h
Gust
km/h
Spd
kts
Gust
kts
17/11:30pm 14.2 13.7 7.9 66 3.2 CALM 0 0 0 0 1022.1 1019.9 0.0
17/11:00pm 14.7 14.1 7.4 61 3.7 CALM 0 0 0 0 1022.3 - 0.0
17/10:30pm 16.4 14.2 6.4 51 5.0 ENE 7 9 4 5 1022.3 1020.1 0.0
17/10:00pm 16.1 14.5 6.5 53 4.8 E 4 9 2 5 1022.2 - 0.0
17/09:30pm 16.5 14.2 7.5 55 4.6 SSE 9 9 5 5 1022.1 1019.9 0.0
17/09:00pm 17.5 15.3 7.7 52 5.1 SE 9 9 5 5 1021.9 1019.7 0.0
17/08:30pm 18.3 15.6 5.5 43 6.4 SE 9 11 5 6 1021.6 1019.4 0.0
17/08:00pm 18.4 15.0 5.9 44 6.3 SSE 13 15 7 8 1021.3 - 0.0
17/07:30pm 18.9 15.5 5.8 42 6.6 SSE 13 15 7 8 1020.9 1018.7 0.0
17/07:00pm 19.7 16.3 5.7 40 7.1 SSE 13 15 7 8 1020.5 - 0.0
17/06:30pm 22.1 18.3 3.7 30 9.1 SSE 13 15 7 8 1020.2 1017.9 0.0
17/06:00pm 24.4 19.6 0.3 20 11.4 SE 15 20 8 11 1019.9 1017.6 0.0
17/05:30pm 25.6 21.2 0.2 19 12.1 SE 13 20 7 11 1019.5 1017.3 0.0
17/05:00pm 26.0 20.8 0.3 18 12.3 SE 17 26 9 14 1019.3 - 0.0
17/04:30pm 26.3 21.2 0.9 19 12.3 SE 17 22 9 12 1019.1 1016.9 0.0
17/04:00pm 26.5 22.1 0.6 18 12.5 ESE 13 26 7 14 1019.1 - 0.0
17/03:30pm 26.5 21.6 2.1 20 12.1 SE 17 28 9 15 1019.2 1017.0 0.0
17/03:00pm 25.8 20.7 1.0 20 12.0 ESE 17 24 9 13 1019.4 1017.2 0.0
17/02:30pm 25.5 22.2 2.2 22 11.5 E 9 19 5 10 1019.6 1017.4 0.0
17/02:00pm 25.4 21.0 2.7 23 11.3 SE 15 22 8 12 1020.0 - 0.0
17/01:30pm 24.7 21.1 2.7 24 10.9 SE 11 17 6 9 1020.2 1017.9 0.0
17/01:00pm 24.7 20.8 3.6 25 10.6 ESE 13 20 7 11 1020.8 - 0.0
17/12:30pm 24.4 20.4 3.1 25 10.6 ESE 13 20 7 11 1021.2 1019.0 0.0
17/12:00pm 23.7 20.0 4.3 28 9.8 ESE 13 26 7 14 1022.0 1019.8 0.0
17/11:30am 22.5 18.8 4.7 31 9.0 SSE 13 20 7 11 1022.4 1020.2 0.0
17/11:00am 22.7 17.7 4.7 31 9.1 ESE 20 30 11 16 1022.7 - 0.0
17/10:30am 21.6 16.8 4.7 33 8.5 ESE 19 26 10 14 1022.9 1020.7 0.0
17/10:00am 21.2 16.6 5.5 36 8.0 ENE 19 26 10 14 1023.0 - 0.0
17/09:30am 20.3 17.3 6.0 39 7.3 E 11 17 6 9 1022.9 1020.7 0.0
17/09:00am 19.0 17.2 7.2 46 6.1 ESE 6 11 3 6 1022.9 1020.7 0.0
17/08:30am 16.4 16.2 9.0 61 3.9 CALM 0 0 0 0 1022.6 1020.4 0.0
17/08:00am 14.4 14.6 10.5 77 2.1 CALM 0 4 0 2 1022.4 - 0.0
17/07:30am 12.0 10.3 9.7 86 1.2 WNW 9 11 5 6 1022.1 1019.9 0.0
17/07:00am 10.3 9.9 8.3 87 1.0 CALM 0 0 0 0 1021.9 - 0.0
17/06:30am 10.5 10.1 8.3 86 1.1 CALM 0 0 0 0 1021.6 1019.4 0.0
17/06:00am 10.6 9.1 8.6 87 1.0 NNW 6 7 3 4 1021.4 1019.2 0.0
17/05:30am 11.0 9.3 8.4 84 1.3 NW 7 7 4 4 1021.3 1019.1 0.0
17/05:00am 10.9 9.4 9.1 89 0.9 W 7 7 4 4 1021.0 - 0.0
17/04:30am 11.3 9.9 9.6 89 0.9 WNW 7 7 4 4 1020.8 1018.6 0.0
17/04:00am 11.6 10.3 9.3 86 1.2 W 6 7 3 4 1020.8 - 0.0
17/03:30am 12.2 10.7 9.3 82 1.5 NW 7 7 4 4 1020.8 1018.6 0.0
17/03:00am 12.2 11.0 9.5 83 1.4 WNW 6 9 3 5 1020.7 1018.5 0.0
17/02:30am 12.1 10.9 9.4 83 1.4 NNW 6 7 3 4 1020.8 1018.6 0.0
17/02:00am 12.6 11.2 9.5 81 1.6 WNW 7 7 4 4 1020.8 - 0.0
17/01:30am 13.0 11.7 9.1 77 2.0 NW 6 7 3 4 1020.9 1018.7 0.0
17/01:00am 13.1 11.6 9.3 78 2.0 WNW 7 9 4 5 1021.0 - 0.0
17/12:30am 13.5 12.2 9.3 76 2.2 WNW 6 7 3 4 1021.0 1018.8 0.0
17/12:00am 14.0 12.7 9.8 76 2.2 WNW 7 7 4 4 1021.0 1018.8 0.0
 
Date/Time
CST
Temp
°C
App
Temp
°C
Dew
Point
Rel
Hum
%
Delta-T
°C
Wind Press
QNH
hPa
Press
MSL
hPa
Rain
since 9 am
mm
Dir
 
Spd
km/h
Gust
km/h
Spd
kts
Gust
kts
16/11:30pm 14.0 13.9 9.6 75 2.3 CALM 0 0 0 0 1021.1 1018.9 0.0
16/11:00pm 15.3 14.9 8.1 62 3.7 CALM 0 4 0 2 1021.3 - 0.0
16/10:30pm 15.6 14.1 8.3 62 3.8 SE 6 7 3 4 1021.2 1019.0 0.0
16/10:00pm 15.8 15.1 8.7 62 3.7 SE 2 7 1 4 1021.0 - 0.0
16/09:30pm 16.6 14.9 8.4 58 4.3 SE 7 9 4 5 1020.9 1018.7 0.0
16/09:00pm 17.5 15.3 7.9 53 5.0 ESE 9 9 5 5 1020.8 1018.6 0.0
16/08:30pm 17.4 14.6 8.7 56 4.6 SE 13 13 7 7 1020.5 1018.3 0.0
16/08:00pm 18.6 15.9 7.4 48 5.8 SE 11 13 6 7 1020.2 - 0.0
16/07:30pm 18.8 16.2 7.7 48 5.8 SE 11 13 6 7 1019.9 1017.6 0.0
16/07:00pm 19.8 17.1 7.4 44 6.5 SE 11 13 6 7 1019.4 - 0.0
16/06:30pm 21.8 18.2 5.0 33 8.5 SE 13 17 7 9 1019.1 1016.9 0.0
16/06:00pm 23.4 18.9 4.2 28 9.7 ESE 17 22 9 12 1018.9 1016.7 0.0
16/05:30pm 24.3 19.1 3.3 25 10.5 ESE 20 30 11 16 1018.6 1016.4 0.0
16/05:00pm 25.1 19.6 3.8 25 10.8 SE 22 30 12 16 1018.5 - 0.0
16/04:30pm 25.1 20.1 3.4 24 10.9 SE 19 28 10 15 1018.5 1016.2 0.0
16/04:00pm 24.9 20.4 4.4 26 10.5 SE 17 26 9 14 1018.5 - 0.0
16/03:30pm 24.8 19.9 4.2 26 10.5 ESE 19 28 10 15 1018.6 1016.4 0.0
16/03:00pm 25.1 21.2 5.3 28 10.3 ESE 15 26 8 14 1018.8 1016.6 0.0
16/02:30pm 24.6 20.1 5.9 30 9.8 SE 19 30 10 16 1019.0 1016.8 0.0
16/02:00pm 24.0 19.5 6.3 32 9.3 SSE 19 26 10 14 1019.3 - 0.0
16/01:30pm 24.2 19.8 6.4 32 9.4 SE 19 28 10 15 1019.5 1017.3 0.0
16/01:00pm 24.1 19.9 5.9 31 9.5 SE 17 28 9 15 1020.1 - 0.0
16/12:30pm 23.2 20.3 6.7 34 8.7 SE 11 15 6 8 1020.6 1018.4 0.0
16/12:00pm 23.3 19.9 7.6 36 8.4 SSE 15 24 8 13 1021.1 1018.9 0.0
16/11:30am 22.8 18.4 7.4 37 8.2 SE 20 28 11 15 1021.6 1019.4 0.0
16/11:00am 22.6 17.4 7.1 36 8.2 ESE 24 30 13 16 1022.0 - 0.0
16/10:30am 21.7 17.5 7.6 40 7.5 E 19 28 10 15 1022.3 1020.1 0.0
16/10:00am 20.6 17.0 8.2 45 6.6 E 17 26 9 14 1022.5 - 0.0
16/09:30am 19.7 16.1 8.4 48 6.0 ESE 17 19 9 10 1022.4 1020.2 0.0
16/09:00am 18.9 16.5 9.9 56 4.9 E 13 20 7 11 1022.3 1020.1 0.0
16/08:30am 16.7 17.1 11.3 70 3.0 CALM 0 7 0 4 1022.1 1019.9 0.0
16/08:00am 15.3 14.3 10.9 75 2.4 W 7 9 4 5 1021.9 - 0.0
16/07:30am 13.4 12.5 11.2 86 1.2 WNW 7 9 4 5 1021.6 1019.4 0.0
16/07:00am 11.7 10.0 9.8 88 1.0 NW 9 11 5 6 1021.2 - 0.0
16/06:30am 11.8 10.4 9.7 87 1.1 W 7 7 4 4 1020.9 1018.7 0.0
16/06:00am 11.6 10.3 9.9 89 0.9 W 7 7 4 4 1020.8 1018.6 0.0
16/05:30am 11.7 10.1 10.2 90 0.8 WNW 9 9 5 5 1020.7 1018.5 0.0
16/05:00am 12.2 11.2 10.3 88 1.0 SW 6 9 3 5 1020.4 - 0.0
16/04:30am 12.6 12.4 10.3 86 1.2 WNW 2 11 1 6 1020.1 1017.8 0.0
16/04:00am 13.1 12.1 10.3 83 1.5 NNW 6 7 3 4 1020.1 - 0.0
16/03:30am 13.1 11.8 10.1 82 1.6 NNW 7 7 4 4 1020.1 1017.8 0.0
16/03:00am 12.7 12.9 10.4 86 1.2 CALM 0 0 0 0 1020.0 1017.7 0.0
16/02:30am 14.1 12.5 10.2 77 2.1 NNE 9 9 5 5 1020.1 1017.8 0.0
16/02:00am 15.3 13.9 9.7 69 3.0 E 7 7 4 4 1020.2 - 0.0
16/01:30am 15.2 14.5 10.2 72 2.7 N 4 7 2 4 1020.4 1018.2 0.0
16/01:00am 15.0 14.2 11.2 78 2.1 S 6 7 3 4 1020.4 - 0.0
16/12:30am 15.2 14.1 10.8 75 2.4 S 7 11 4 6 1020.5 1018.3 0.0
16/12:00am 15.8 14.0 10.9 72 2.7 SSE 11 13 6 7 1020.5 1018.3 0.0
 
Date/Time
CST
Temp
°C
App
Temp
°C
Dew
Point
Rel
Hum
%
Delta-T
°C
Wind Press
QNH
hPa
Press
MSL
hPa
Rain
since 9 am
mm
Dir
 
Spd
km/h
Gust
km/h
Spd
kts
Gust
kts
15/11:30pm 16.1 14.7 11.0 72 2.8 SSE 9 11 5 6 1020.7 1018.5 0.0
15/11:00pm 16.3 14.7 11.6 74 2.6 SSE 11 13 6 7 1020.9 - 0.0
15/10:30pm 16.8 15.2 11.4 70 3.0 SSE 11 11 6 6 1020.8 1018.6 0.0
15/10:00pm 17.3 16.0 11.2 67 3.4 SSE 9 11 5 6 1020.8 - 0.0
15/09:30pm 18.0 16.4 10.1 60 4.3 SSE 9 11 5 6 1020.7 1018.5 0.0
15/09:00pm 17.6 15.5 11.3 66 3.5 SE 13 13 7 7 1020.5 1018.3 0.0
15/08:30pm 18.6 17.1 10.6 59 4.4 SE 9 11 5 6 1020.2 1017.9 0.0
15/08:00pm 18.9 17.0 10.6 58 4.6 SE 11 13 6 7 1019.9 - 0.0
15/07:30pm 19.5 17.5 10.0 54 5.2 SE 11 13 6 7 1019.4 1017.2 0.0
15/07:00pm 20.7 18.4 9.1 47 6.3 SE 11 11 6 6 1019.1 - 0.0
15/06:30pm 22.1 18.8 7.9 40 7.6 SE 15 20 8 11 1018.8 1016.6 0.0
15/06:00pm 23.4 19.9 7.0 34 8.7 SE 15 20 8 11 1018.5 1016.2 0.0
15/05:30pm 24.2 19.7 6.9 33 9.2 ESE 20 26 11 14 1018.4 1016.1 0.0
15/05:00pm 24.6 20.1 6.8 32 9.5 ESE 20 28 11 15 1018.3 - 0.0
15/04:30pm 24.6 20.6 6.5 31 9.6 SSE 17 28 9 15 1018.3 1016.0 0.0
15/04:00pm 25.1 20.0 6.2 29 10.0 SSE 22 28 12 15 1018.2 - 0.0
15/03:30pm 24.4 20.3 6.4 31 9.5 ESE 17 28 9 15 1018.2 1015.9 0.0
15/03:00pm 24.3 19.5 5.7 30 9.7 ESE 20 35 11 19 1018.2 1015.9 0.0
15/02:30pm 24.2 18.4 6.1 31 9.5 E 26 39 14 21 1018.4 1016.1 0.0
15/02:00pm 24.7 19.7 6.4 31 9.7 SE 22 30 12 16 1018.4 - 0.0
15/01:30pm 23.7 19.1 6.7 33 9.0 SE 20 32 11 17 1018.8 1016.6 0.0
15/01:00pm 23.6 19.1 6.8 34 8.9 SE 20 43 11 23 1019.1 - 0.0
15/12:30pm 23.4 18.9 7.0 34 8.7 SE 20 33 11 18 1019.9 1017.6 0.0
15/12:00pm 22.3 18.0 7.2 37 8.0 SE 19 33 10 18 1020.5 1018.3 0.0
15/11:30am 22.3 17.4 6.9 37 8.1 SSE 22 32 12 17 1021.0 1018.8 0.0
15/11:00am 21.6 16.3 6.9 38 7.7 SE 24 33 13 18 1021.3 - 0.0
15/10:30am 21.0 15.1 7.3 41 7.2 SE 28 39 15 21 1021.8 1019.5 0.0
15/10:00am 20.2 14.3 7.4 43 6.7 SE 28 39 15 21 1021.8 - 0.0
15/09:30am 20.1 15.8 8.0 45 6.4 SE 20 30 11 16 1021.5 1019.3 0.0

Other Formats:

Comma delimited format used in spreadsheet applications
http://www.bom.gov.au/fwo/IDD60801/IDD60801.94326.axf

JavaScript Object Notation format (JSON) in row-major order
http://www.bom.gov.au/fwo/IDD60801/IDD60801.94326.json